Terminal Aerodrome Forecast
Issued by NWS

Current Version | Previous Version | Text Only | Print | Product List | Glossary On
Versions: 1 2 3 4 5 6 7 8 9 10 11 12 13 14 15 16 17 18 19 20 21 22 23 24 25 26 27 28 29 30 31 32 33 34 35 36 37 38 39 40 41 42 43 44 45
000
FTUS41 KBOX 201729
TAFMHT
TAF
KMHT 201729Z 2018/2118 19009G17KT P6SM BKN035
     FM202100 18008KT P6SM SCT040
     FM210600 18004KT P6SM BKN070
     FM210900 18005KT 5SM BR BKN015
     FM211200 17004KT 3SM BR BKN003 WS020/20030KT
     FM211500 16007KT P6SM BKN015=

USA.gov is the U.S. government's official web portal to all federal, state and local government web resources and services.